Time;durP1;ratioP1;P1;durP2;ratioP2;P2;SDS_P1;SDS_P2;PMS_P1;PMS_P2;Temp;Humidity;BMP_temperature;BMP_pressure;BME280_temperature;BME280_humidity;BME280_pressure;Samples;Min_cycle;Max_cycle;Signal;HPM_P1;HPM_P2
2022/07/12 00:01:59;;;;;;;0.20;0.20;;;;;;;20.77;35.49;95526.16;5051423;28;20455;-62
2022/07/12 00:04:26;;;;;;;0.30;0.30;;;;;;;20.86;35.46;95529.66;5052900;28;20517;-61
2022/07/12 00:06:53;;;;;;;0.30;0.30;;;;;;;21.02;35.19;95528.22;5022351;28;20443;-63
2022/07/12 00:09:20;;;;;;;1.17;1.07;;;;;;;20.78;35.52;95535.72;5018997;28;20457;-61
2022/07/12 00:11:47;;;;;;;0.20;0.20;;;;;;;20.87;35.47;95515.28;5024558;28;20500;-62
2022/07/12 00:14:13;;;;;;;0.57;0.57;;;;;;;21.23;35.09;95539.16;5027620;28;20443;-62
2022/07/12 00:16:40;;;;;;;0.10;0.10;;;;;;;21.14;35.02;95541.78;5052891;28;20502;-63
2022/07/12 00:19:08;;;;;;;0.20;0.20;;;;;;;20.93;35.46;95535.34;5028001;28;20441;-63
2022/07/12 00:21:35;;;;;;;1.70;0.83;;;;;;;20.77;35.53;95531.47;5036814;28;20443;-61
2022/07/12 00:24:02;;;;;;;0.20;0.20;;;;;;;20.80;35.84;95536.19;5041283;28;20478;-61
2022/07/12 00:26:29;;;;;;;0.83;0.63;;;;;;;20.88;36.51;95542.66;5046033;28;20460;-62
2022/07/12 00:28:57;;;;;;;0.10;0.10;;;;;;;20.89;36.93;95534.38;5032937;28;20880;-62
2022/07/12 00:31:24;;;;;;;0.10;0.10;;;;;;;20.14;37.11;95539.56;5020263;28;20547;-61
2022/07/12 00:33:51;;;;;;;0.10;0.10;;;;;;;20.25;37.31;95544.69;5052418;28;20482;-63
2022/07/12 00:36:19;;;;;;;0.50;0.50;;;;;;;20.05;37.19;95529.94;5037933;28;20446;-64
2022/07/12 00:38:47;;;;;;;0.20;0.20;;;;;;;20.10;37.15;95538.59;5038833;28;20438;-64
2022/07/12 00:41:14;;;;;;;0.20;0.20;;;;;;;20.38;37.13;95533.22;5026534;28;20455;-64
2022/07/12 00:43:41;;;;;;;0.90;0.90;;;;;;;20.43;36.86;95535.78;5039997;28;20449;-61
2022/07/12 00:46:09;;;;;;;0.30;0.30;;;;;;;20.24;37.37;95535.16;5034282;28;20852;-61
2022/07/12 00:48:36;;;;;;;0.10;0.10;;;;;;;20.19;37.69;95530.72;5023354;28;20527;-63
2022/07/12 00:51:03;;;;;;;0.43;0.30;;;;;;;19.62;37.98;95531.34;5033305;28;21026;-63
2022/07/12 00:53:30;;;;;;;0.30;0.30;;;;;;;20.01;37.44;95531.63;5042303;28;20962;-63
2022/07/12 00:55:58;;;;;;;0.30;0.30;;;;;;;19.94;37.90;95528.59;5021018;28;20459;-63
2022/07/12 00:58:25;;;;;;;0.57;0.57;;;;;;;20.06;37.96;95526.19;5029170;28;20957;-63
2022/07/12 01:00:57;;;;;;;0.20;0.20;;;;;;;19.94;37.86;95523.25;5041340;28;20447;-62
2022/07/12 01:03:24;;;;;;;0.40;0.40;;;;;;;19.76;38.45;95534.81;5035875;28;20447;-63
2022/07/12 01:05:51;;;;;;;0.30;0.30;;;;;;;19.87;38.12;95534.28;5031579;28;20546;-61
2022/07/12 01:08:19;;;;;;;0.10;0.10;;;;;;;19.90;38.57;95532.91;5024810;28;20536;-63
2022/07/12 01:10:48;;;;;;;0.23;0.23;;;;;;;19.89;38.86;95542.00;5039806;28;20501;-62
2022/07/12 01:13:16;;;;;;;0.17;0.17;;;;;;;19.91;38.63;95529.16;5018085;28;20448;-62
2022/07/12 01:15:43;;;;;;;0.40;0.40;;;;;;;19.92;38.85;95530.75;5032085;28;20444;-64
2022/07/12 01:18:11;;;;;;;0.20;0.20;;;;;;;19.74;38.73;95534.31;5036518;28;20442;-63
2022/07/12 01:20:38;;;;;;;0.50;0.50;;;;;;;19.61;39.08;95540.44;5040799;28;20440;-62
2022/07/12 01:23:06;;;;;;;0.20;0.20;;;;;;;19.43;39.80;95539.44;5031083;28;20977;-63
2022/07/12 01:25:33;;;;;;;0.10;0.10;;;;;;;19.44;39.51;95530.38;5031637;28;20480;-64
2022/07/12 01:28:00;;;;;;;0.40;0.40;;;;;;;19.43;39.33;95533.34;5045886;28;20451;-63
2022/07/12 01:30:27;;;;;;;0.20;0.20;;;;;;;19.37;39.43;95545.16;5043825;28;20510;-62
2022/07/12 01:35:41;;;;;;;0.30;0.30;;;;;;;19.32;39.49;95537.28;5040072;28;20454;-64
2022/07/12 01:38:08;;;;;;;1.77;1.23;;;;;;;19.35;39.47;95536.66;5023136;28;20437;-63
2022/07/12 01:40:35;;;;;;;0.20;0.20;;;;;;;19.36;39.27;95532.94;5037049;28;20449;-63
2022/07/12 01:43:02;;;;;;;0.40;0.40;;;;;;;19.43;39.06;95533.34;5024413;28;20498;-62
2022/07/12 01:45:30;;;;;;;0.20;0.20;;;;;;;19.42;38.83;95531.75;5036596;28;20536;-62
2022/07/12 01:47:58;;;;;;;0.20;0.20;;;;;;;19.25;39.18;95526.22;5051192;28;20445;-64
2022/07/12 01:50:25;;;;;;;0.10;0.10;;;;;;;19.27;39.37;95535.44;5014388;28;20990;-64
2022/07/12 01:52:53;;;;;;;0.13;0.13;;;;;;;18.96;39.63;95527.25;5011300;28;20456;-64
2022/07/12 01:55:20;;;;;;;0.10;0.10;;;;;;;19.09;39.88;95534.44;5033002;28;20775;-62
2022/07/12 01:57:47;;;;;;;0.13;0.13;;;;;;;19.12;39.58;95536.50;5021919;28;20631;-62
2022/07/12 02:00:14;;;;;;;0.20;0.20;;;;;;;19.07;39.33;95528.63;5026702;28;20502;-62
2022/07/12 02:02:41;;;;;;;0.10;0.10;;;;;;;18.71;40.15;95532.19;5011049;28;20873;-62
2022/07/12 02:05:08;;;;;;;0.40;0.40;;;;;;;18.91;39.41;95531.84;5027173;28;20867;-62
2022/07/12 02:07:36;;;;;;;0.43;0.33;;;;;;;18.22;40.29;95540.63;5036228;28;20473;-62
2022/07/12 02:10:05;;;;;;;0.27;0.27;;;;;;;17.52;41.98;95541.50;5019156;28;20860;-64
2022/07/12 02:12:32;;;;;;;0.17;0.17;;;;;;;18.08;40.67;95539.75;5044008;28;20453;-63
2022/07/12 02:15:00;;;;;;;1.70;0.63;;;;;;;18.15;41.13;95545.50;5025116;28;20439;-61
2022/07/12 02:17:27;;;;;;;0.10;0.10;;;;;;;17.87;41.76;95539.22;5051926;28;20470;-64
2022/07/12 02:19:54;;;;;;;0.60;0.60;;;;;;;18.37;40.43;95540.41;5031599;28;20432;-63
2022/07/12 02:22:21;;;;;;;0.10;0.10;;;;;;;18.47;40.40;95539.47;5029120;28;20938;-63
2022/07/12 02:24:48;;;;;;;0.60;0.60;;;;;;;18.72;39.97;95539.84;5030129;28;20908;-63
2022/07/12 02:27:15;;;;;;;0.50;0.50;;;;;;;18.76;39.80;95538.19;5039151;28;20561;-63
2022/07/12 02:29:42;;;;;;;0.50;0.40;;;;;;;18.69;39.89;95535.13;5046832;28;20447;-62
2022/07/12 02:32:09;;;;;;;0.93;0.87;;;;;;;18.68;39.50;95546.84;5026224;28;20501;-63
2022/07/12 02:34:36;;;;;;;0.33;0.30;;;;;;;18.27;40.26;95542.38;5050109;28;20457;-64
2022/07/12 02:37:03;;;;;;;0.20;0.20;;;;;;;18.36;40.76;95540.66;5016488;28;20885;-63
2022/07/12 02:39:29;;;;;;;0.30;0.30;;;;;;;18.15;41.32;95537.53;5042405;28;20463;-61
2022/07/12 02:41:56;;;;;;;0.20;0.17;;;;;;;18.20;41.97;95542.75;5021994;28;20442;-62
2022/07/12 02:44:23;;;;;;;0.20;0.20;;;;;;;18.32;41.72;95545.00;5039217;28;20974;-64
2022/07/12 02:46:50;;;;;;;0.40;0.40;;;;;;;18.45;41.26;95542.41;5027329;28;20523;-64
2022/07/12 02:49:17;;;;;;;0.30;0.30;;;;;;;19.09;nan;95550.38;5027917;28;20949;-61
2022/07/12 02:51:44;;;;;;;0.30;0.30;;;;;;;18.81;nan;95543.44;5048401;28;20954;-61
2022/07/12 02:54:10;;;;;;;0.40;0.40;;;;;;;18.97;nan;95531.50;5037171;28;20431;-63
2022/07/12 02:56:37;;;;;;;0.10;0.10;;;;;;;19.04;nan;95539.88;5019100;28;20453;-64
2022/07/12 02:59:04;;;;;;;0.63;0.63;;;;;;;18.79;nan;95544.81;5038086;28;20443;-61
2022/07/12 03:01:31;;;;;;;0.10;0.10;;;;;;;18.80;nan;95549.81;5048858;28;20443;-63
2022/07/12 03:03:58;;;;;;;0.10;0.10;;;;;;;19.09;nan;95553.06;5035669;28;20976;-64
2022/07/12 03:06:25;;;;;;;0.10;0.10;;;;;;;19.01;nan;95552.94;5049338;28;21023;-64
2022/07/12 03:08:52;;;;;;;0.63;0.30;;;;;;;19.33;nan;95557.44;5024378;28;20464;-62
2022/07/12 03:11:19;;;;;;;0.20;0.20;;;;;;;19.13;nan;95562.00;5041277;28;20954;-64
2022/07/12 03:13:46;;;;;;;0.10;0.10;;;;;;;18.91;nan;95566.38;5029414;28;20440;-62
2022/07/12 03:16:13;;;;;;;0.10;0.10;;;;;;;18.64;nan;95568.94;5017955;28;20437;-62
2022/07/12 03:18:41;;;;;;;0.20;0.20;;;;;;;18.56;nan;95574.88;5031593;28;20449;-62
2022/07/12 03:21:08;;;;;;;0.13;0.13;;;;;;;18.22;nan;95577.75;5040008;28;20455;-63
2022/07/12 03:23:35;;;;;;;0.33;0.33;;;;;;;18.19;nan;95579.09;5041272;28;20431;-63
2022/07/12 03:26:02;;;;;;;0.67;0.67;;;;;;;17.76;nan;95579.41;5042816;28;20498;-64
2022/07/12 03:28:29;;;;;;;0.33;0.33;;;;;;;18.07;nan;95576.09;5037674;28;20853;-64
2022/07/12 03:30:56;;;;;;;0.57;0.57;;;;;;;17.87;nan;95570.25;5021489;28;20464;-64
2022/07/12 03:33:23;;;;;;;0.10;0.10;;;;;;;18.16;nan;95578.88;5029336;28;20436;-61
2022/07/12 03:35:55;;;;;;;0.53;0.53;;;;;;;18.58;nan;95584.16;5018825;28;21186;-64
2022/07/12 03:38:22;;;;;;;0.20;0.20;;;;;;;18.26;nan;95578.75;5026550;28;20470;-61
2022/07/12 03:40:49;;;;;;;0.10;0.10;;;;;;;18.37;nan;95584.72;5038772;28;20446;-61
2022/07/12 03:43:16;;;;;;;0.20;0.20;;;;;;;18.64;nan;95584.88;5048969;28;20453;-63
2022/07/12 03:45:43;;;;;;;0.20;0.20;;;;;;;18.19;nan;95579.09;5040689;28;20476;-64
2022/07/12 03:48:09;;;;;;;0.83;0.50;;;;;;;18.59;nan;95582.28;5029586;28;20450;-63
2022/07/12 03:50:37;;;;;;;0.20;0.20;;;;;;;19.05;nan;95575.97;5043730;28;20446;-63
2022/07/12 03:53:03;;;;;;;1.07;0.77;;;;;;;18.93;nan;95578.28;5041643;28;20443;-63
2022/07/12 03:55:30;;;;;;;0.30;0.30;;;;;;;19.18;nan;95577.84;5034977;28;20756;-64
2022/07/12 03:57:57;;;;;;;0.10;0.10;;;;;;;19.10;nan;95583.84;5035873;28;20963;-64
2022/07/12 04:00:24;;;;;;;0.77;0.77;;;;;;;18.78;nan;95586.50;5032265;28;20444;-62
2022/07/12 04:02:53;;;;;;;0.30;0.30;;;;;;;18.92;nan;95586.56;5037857;28;20528;-63
2022/07/12 04:05:25;;;;;;;0.17;0.17;;;;;;;18.54;nan;95596.41;5047337;28;20470;-62
2022/07/12 04:07:53;;;;;;;0.30;0.30;;;;;;;18.45;nan;95595.50;5025390;28;20432;-63
2022/07/12 04:10:20;;;;;;;0.20;0.20;;;;;;;19.00;nan;95594.66;5030067;28;20467;-62
2022/07/12 04:12:47;;;;;;;0.43;0.43;;;;;;;18.58;nan;95597.44;5034935;28;20946;-63
2022/07/12 04:15:14;;;;;;;0.73;0.63;;;;;;;18.79;nan;95593.41;5047983;28;20427;-62
2022/07/12 04:17:41;;;;;;;1.10;0.77;;;;;;;19.41;nan;95596.63;5047604;28;21062;-65
2022/07/12 04:20:10;;;;;;;0.50;0.50;;;;;;;19.08;nan;95607.28;5015809;28;20455;-62
2022/07/12 04:22:37;;;;;;;0.10;0.10;;;;;;;18.72;nan;95608.88;5008824;28;20444;-63
2022/07/12 04:25:06;;;;;;;0.70;0.70;;;;;;;18.95;nan;95607.22;5027381;28;20451;-61
2022/07/12 04:27:33;;;;;;;2.43;1.57;;;;;;;19.26;nan;95607.50;5037490;28;20540;-63
2022/07/12 04:30:00;;;;;;;0.20;0.20;;;;;;;19.47;nan;95603.44;5037603;28;20831;-62
2022/07/12 04:32:29;;;;;;;0.63;0.63;;;;;;;19.01;nan;95611.38;5037447;28;20980;-61
2022/07/12 04:34:56;;;;;;;0.10;0.10;;;;;;;19.27;nan;95611.75;5051210;28;20453;-62
2022/07/12 04:37:23;;;;;;;1.10;0.63;;;;;;;19.51;nan;95607.88;5028059;28;20453;-62
2022/07/12 04:39:50;;;;;;;0.10;0.10;;;;;;;19.62;nan;95616.44;5042063;28;20439;-63
2022/07/12 04:42:17;;;;;;;0.67;0.47;;;;;;;19.52;nan;95612.13;5040697;28;20966;-61
2022/07/12 04:44:44;;;;;;;0.23;0.23;;;;;;;19.20;nan;95610.25;5023367;28;20455;-63
2022/07/12 04:47:11;;;;;;;0.73;0.73;;;;;;;19.55;nan;95621.34;5034863;28;20488;-62
2022/07/12 04:49:38;;;;;;;2.80;2.37;;;;;;;19.72;nan;95614.41;5040206;28;20449;-62
2022/07/12 04:52:05;;;;;;;1.67;1.57;;;;;;;19.88;nan;95617.53;5050851;28;20475;-63
2022/07/12 04:54:32;;;;;;;9.03;1.17;;;;;;;20.14;nan;95613.28;5049222;28;20818;-68
2022/07/12 04:56:59;;;;;;;0.10;0.10;;;;;;;19.64;nan;95619.59;5017899;28;20444;-65
2022/07/12 04:59:26;;;;;;;0.57;0.37;;;;;;;20.18;nan;95620.41;5031582;28;20440;-62
2022/07/12 05:01:53;;;;;;;0.30;0.30;;;;;;;19.85;nan;95610.16;5048516;28;20504;-66
2022/07/12 05:04:20;;;;;;;0.60;0.60;;;;;;;19.49;nan;95612.69;5050828;28;20441;-61
2022/07/12 05:06:48;;;;;;;0.40;0.40;;;;;;;19.60;nan;95618.59;5036437;28;20576;-66
2022/07/12 05:09:15;;;;;;;0.73;0.73;;;;;;;19.95;nan;95612.59;5023183;28;20445;-63
2022/07/12 05:11:42;;;;;;;1.07;1.07;;;;;;;20.15;nan;95617.53;5036011;28;20962;-63
2022/07/12 05:14:09;;;;;;;0.93;0.73;;;;;;;19.47;nan;95624.72;5011057;28;20467;-64
2022/07/12 05:16:36;;;;;;;0.40;0.40;;;;;;;19.66;nan;95609.44;5044263;28;20594;-61
2022/07/12 05:19:03;;;;;;;0.70;0.67;;;;;;;20.12;nan;95615.47;5042564;28;20443;-63
2022/07/12 05:21:30;;;;;;;0.50;0.50;;;;;;;20.06;nan;95612.13;5050471;28;21067;-63
2022/07/12 05:23:56;;;;;;;0.13;0.13;;;;;;;20.18;nan;95615.09;5035127;28;20868;-64
2022/07/12 05:26:23;;;;;;;0.50;0.50;;;;;;;19.84;nan;95613.88;5012975;28;20516;-61
2022/07/12 05:28:50;;;;;;;1.80;1.37;;;;;;;19.42;nan;95624.78;5020406;28;20538;-60
2022/07/12 05:31:18;;;;;;;1.50;0.93;;;;;;;19.83;nan;95618.44;5023015;28;20436;-62
2022/07/12 05:33:45;;;;;;;0.37;0.37;;;;;;;19.83;nan;95620.31;5017345;28;20458;-63
2022/07/12 05:36:12;;;;;;;1.40;0.87;;;;;;;19.61;nan;95625.50;5024158;28;20455;-63
2022/07/12 05:38:39;;;;;;;0.47;0.47;;;;;;;20.48;nan;95613.66;5020887;28;20458;-62
2022/07/12 05:41:06;;;;;;;4.67;1.43;;;;;;;20.43;nan;95607.66;5020146;28;20554;-61
2022/07/12 05:43:33;;;;;;;1.90;0.97;;;;;;;20.93;nan;95609.94;5020636;28;20448;-67
2022/07/12 05:46:00;;;;;;;0.70;0.70;;;;;;;20.62;nan;95614.41;5014700;28;21050;-66
2022/07/12 05:48:27;;;;;;;0.33;0.33;;;;;;;20.23;nan;95613.41;5022363;28;20828;-61
2022/07/12 05:50:54;;;;;;;0.30;0.30;;;;;;;20.84;nan;95613.63;5020401;28;20544;-64
2022/07/12 05:53:24;;;;;;;0.33;0.33;;;;;;;20.40;nan;95601.03;5020115;28;20436;-66
2022/07/12 05:55:53;;;;;;;0.50;0.50;;;;;;;20.49;nan;95609.88;5016011;28;20947;-63
2022/07/12 05:58:21;;;;;;;0.60;0.60;;;;;;;20.81;nan;95611.56;5020720;28;20435;-67
2022/07/12 06:00:48;;;;;;;0.30;0.30;;;;;;;19.98;nan;95614.69;5023300;28;20444;-66
2022/07/12 06:03:16;;;;;;;0.33;0.33;;;;;;;20.43;nan;95600.47;5019827;28;20445;-62
2022/07/12 06:05:43;;;;;;;0.57;0.57;;;;;;;20.63;nan;95530.78;5020903;28;20776;-65
2022/07/12 06:08:10;;;;;;;0.57;0.53;;;;;;;20.46;nan;95612.38;5019093;28;20494;-64
2022/07/12 06:10:37;;;;;;;0.30;0.30;;;;;;;20.41;nan;95596.50;5024570;28;20958;-67
2022/07/12 06:13:04;;;;;;;0.20;0.20;;;;;;;21.13;nan;95604.16;5017760;28;20463;-66
2022/07/12 06:15:31;;;;;;;0.37;0.37;;;;;;;21.03;nan;95601.75;5019828;28;20568;-61
2022/07/12 06:18:00;;;;;;;1.37;0.97;;;;;;;21.62;nan;95599.72;5025467;28;20723;-65
2022/07/12 06:20:28;;;;;;;0.27;0.27;;;;;;;21.99;nan;95591.25;5025281;28;20467;-65
2022/07/12 06:22:58;;;;;;;0.63;0.63;;;;;;;22.18;nan;95589.09;5020221;28;20460;-66
2022/07/12 06:25:25;;;;;;;0.30;0.30;;;;;;;22.12;nan;95587.66;5023409;28;20478;-65
2022/07/12 06:28:08;;;;;;;0.83;0.80;;;;;;;22.05;nan;95587.34;5020995;28;20435;-65
2022/07/12 06:30:35;;;;;;;0.63;0.53;;;;;;;22.34;nan;95587.56;5014246;28;20194;-64
2022/07/12 06:33:02;;;;;;;0.93;0.93;;;;;;;22.69;nan;95586.50;5025757;28;20548;-63
2022/07/12 06:35:29;;;;;;;0.77;0.77;;;;;;;22.64;nan;95589.34;5028954;28;20442;-63
2022/07/12 06:37:56;;;;;;;0.20;0.20;;;;;;;22.76;nan;95586.03;5042471;28;20447;-62
2022/07/12 06:40:24;;;;;;;0.63;0.63;;;;;;;22.76;nan;95586.03;5021576;28;20459;-64
2022/07/12 06:42:51;;;;;;;0.23;0.23;;;;;;;22.52;nan;95585.66;5048985;28;20555;-62
2022/07/12 06:45:18;;;;;;;0.33;0.33;;;;;;;22.76;nan;95581.47;5048012;28;20686;-63
2022/07/12 06:47:45;;;;;;;0.80;0.80;;;;;;;22.74;nan;95581.00;5029197;28;21172;-63
2022/07/12 06:50:13;;;;;;;0.50;0.50;;;;;;;23.09;nan;95585.22;5028001;28;20448;-64
2022/07/12 06:52:40;;;;;;;0.30;0.30;;;;;;;22.96;nan;95578.16;5040726;28;20439;-64
2022/07/12 06:55:08;;;;;;;0.10;0.10;;;;;;;23.03;nan;95578.47;5024940;28;20912;-62
2022/07/12 06:57:37;;;;;;;0.20;0.20;;;;;;;23.00;nan;95576.44;5018357;28;20264;-63
2022/07/12 07:00:05;;;;;;;0.20;0.20;;;;;;;22.69;nan;95559.78;5045530;28;20192;-62
2022/07/12 07:02:33;;;;;;;0.40;0.40;;;;;;;22.74;nan;95573.00;5048693;28;20451;-62
2022/07/12 07:05:00;;;;;;;1.40;1.00;;;;;;;22.97;nan;95576.28;5032533;28;20447;-62
2022/07/12 07:07:29;;;;;;;0.10;0.10;;;;;;;23.80;nan;95556.06;5015899;28;20479;-62
2022/07/12 07:09:56;;;;;;;0.40;0.40;;;;;;;23.68;nan;95558.66;5016123;28;20197;-64
2022/07/12 07:12:23;;;;;;;0.30;0.30;;;;;;;23.68;nan;95559.44;5029078;28;20276;-62
2022/07/12 07:14:51;;;;;;;0.20;0.20;;;;;;;23.56;nan;95571.91;5048022;28;20207;-66
2022/07/12 07:17:19;;;;;;;0.10;0.10;;;;;;;23.82;nan;95553.84;5036908;28;20208;-65
2022/07/12 07:19:46;;;;;;;1.10;0.97;;;;;;;23.92;nan;95559.63;5034001;28;20213;-62
2022/07/12 07:22:13;;;;;;;0.43;0.43;;;;;;;23.97;nan;95555.97;5018686;28;20235;-63
2022/07/12 07:24:40;;;;;;;0.40;0.40;;;;;;;23.64;nan;95573.78;5044752;28;20582;-62
2022/07/12 07:27:08;;;;;;;0.40;0.40;;;;;;;23.93;nan;95561.19;5039375;28;20252;-67
2022/07/12 07:32:21;;;;;;;0.30;0.30;;;;;;;24.16;nan;95561.72;5017798;28;20656;-66
2022/07/12 07:34:48;;;;;;;0.30;0.20;;;;;;;23.88;nan;95568.63;5043937;28;20200;-66
2022/07/12 07:37:15;;;;;;;0.13;0.13;;;;;;;23.66;nan;95566.22;5048733;28;20580;-65
2022/07/12 07:39:42;;;;;;;0.20;0.20;;;;;;;23.73;nan;95556.56;5034495;28;20328;-62
2022/07/12 07:42:09;;;;;;;0.27;0.27;;;;;;;23.60;nan;95562.94;5008650;28;20201;-64
2022/07/12 07:44:36;;;;;;;0.30;0.30;;;;;;;24.25;nan;95557.09;5033455;28;20204;-62
2022/07/12 07:47:23;;;;;;;0.10;0.10;;;;;;;24.82;nan;95554.63;5023408;28;20696;-66
2022/07/12 07:49:50;;;;;;;0.40;0.40;;;;;;;24.74;nan;95548.22;5021183;28;20185;-61
2022/07/12 07:52:18;;;;;;;0.10;0.10;;;;;;;24.59;nan;95551.50;5036135;28;20201;-66
2022/07/12 07:54:44;;;;;;;0.13;0.13;;;;;;;24.39;nan;95546.94;5019219;28;20193;-63
2022/07/12 07:57:11;;;;;;;0.23;0.23;;;;;;;24.58;nan;95549.16;5024630;28;20180;-64
2022/07/12 07:59:38;;;;;;;0.40;0.40;;;;;;;24.42;nan;95551.63;5052423;28;20193;-65
2022/07/12 08:02:05;;;;;;;1.03;0.47;;;;;;;24.33;nan;95545.53;5046935;28;20359;-64
2022/07/12 08:04:32;;;;;;;0.37;0.37;;;;;;;24.25;nan;95546.38;5043666;28;20204;-66
2022/07/12 08:06:59;;;;;;;0.10;0.10;;;;;;;24.40;nan;95539.66;5024102;28;20212;-65
2022/07/12 08:09:25;;;;;;;0.87;0.73;;;;;;;24.67;nan;95542.59;5023679;28;20196;-65
2022/07/12 08:11:52;;;;;;;4.43;0.83;;;;;;;25.12;nan;95539.22;5042843;28;20723;-66
2022/07/12 08:14:19;;;;;;;1.53;0.93;;;;;;;24.38;nan;95539.22;5016994;28;20198;-65
2022/07/12 08:16:46;;;;;;;0.60;0.60;;;;;;;25.39;nan;95535.94;5012122;28;20273;-67
2022/07/12 08:19:13;;;;;;;0.17;0.17;;;;;;;24.94;nan;95542.06;5025632;28;20201;-63
2022/07/12 08:21:40;;;;;;;0.10;0.10;;;;;;;24.94;nan;95527.88;5051408;28;20309;-63
2022/07/12 08:24:07;;;;;;;0.10;0.10;;;;;;;25.49;nan;95530.91;5051892;28;20193;-64
2022/07/12 08:26:34;;;;;;;0.10;0.10;;;;;;;25.73;nan;95522.13;5023509;28;20240;-65
2022/07/12 08:29:00;;;;;;;0.10;0.10;;;;;;;25.65;nan;95512.28;5041846;28;20201;-67
2022/07/12 08:31:27;;;;;;;0.33;0.33;;;;;;;25.21;nan;95523.81;5043330;28;20303;-66
2022/07/12 08:33:54;;;;;;;0.43;0.43;;;;;;;25.01;nan;95526.22;5013232;28;20208;-64
2022/07/12 08:36:22;;;;;;;0.60;0.60;;;;;;;24.98;nan;95526.88;5044815;28;20250;-67
2022/07/12 08:38:50;;;;;;;0.17;0.17;;;;;;;24.83;nan;95530.19;5025095;28;20204;-64
2022/07/12 08:41:35;;;;;;;0.30;0.30;;;;;;;24.99;nan;95523.09;5051261;28;20274;-65
2022/07/12 08:44:02;;;;;;;0.30;0.30;;;;;;;25.38;nan;95519.09;5011306;28;20633;-66
2022/07/12 08:46:29;;;;;;;0.93;0.77;;;;;;;26.14;nan;95521.91;5039148;28;20594;-65
2022/07/12 08:48:56;;;;;;;0.20;0.20;;;;;;;25.49;nan;95516.75;5045232;28;20588;-64
2022/07/12 08:51:23;;;;;;;1.10;0.70;;;;;;;25.69;nan;95505.13;5031049;28;20197;-66
2022/07/12 08:54:13;;;;;;;0.70;0.33;;;;;;;25.37;nan;95501.38;5026680;28;20194;-66
2022/07/12 08:56:43;;;;;;;0.20;0.20;;;;;;;24.94;nan;95504.50;5017721;28;20190;-67
2022/07/12 08:59:16;;;;;;;0.10;0.10;;;;;;;25.14;nan;95507.47;5033388;28;20236;-65
2022/07/12 09:01:51;;;;;;;0.20;0.20;;;;;;;25.51;nan;95511.81;5013732;28;20308;-67
2022/07/12 09:04:27;;;;;;;0.30;0.30;;;;;;;25.62;nan;95515.63;5030850;28;20188;-67
2022/07/12 09:06:54;;;;;;;0.10;0.10;;;;;;;25.61;nan;95517.53;5042131;28;20315;-66
2022/07/12 09:09:28;;;;;;;0.10;0.10;;;;;;;25.25;nan;95506.72;5014884;28;20220;-66
2022/07/12 09:11:55;;;;;;;0.17;0.17;;;;;;;25.57;nan;95515.84;5051122;28;20256;-66
2022/07/12 09:14:23;;;;;;;0.30;0.30;;;;;;;24.64;nan;95510.31;5019650;28;20284;-66
2022/07/12 09:17:12;;;;;;;1.27;0.80;;;;;;;25.54;nan;95506.56;5018708;28;20248;-65
2022/07/12 09:19:39;;;;;;;3.80;0.50;;;;;;;25.63;nan;95498.41;5018902;28;20182;-65
2022/07/12 09:22:16;;;;;;;0.10;0.10;;;;;;;25.03;nan;95507.91;5010830;28;20197;-67
2022/07/12 09:24:43;;;;;;;0.30;0.30;;;;;;;25.72;nan;95501.75;5027135;28;20205;-67
2022/07/12 09:27:10;;;;;;;0.27;0.27;;;;;;;26.50;nan;95489.56;5039174;28;20224;-68
2022/07/12 09:29:48;;;;;;;0.40;0.40;;;;;;;26.93;nan;95497.69;5049171;28;20200;-68
2022/07/12 09:37:49;;;;;;;0.37;0.37;;;;;;;26.35;nan;95487.56;5037656;28;20207;-65
2022/07/12 09:40:17;;;;;;;0.20;0.20;;;;;;;26.32;nan;95488.28;5011888;28;20665;-65
2022/07/12 09:42:45;;;;;;;0.20;0.20;;;;;;;26.18;nan;95493.22;5021427;28;20267;-67
2022/07/12 09:45:12;;;;;;;0.20;0.20;;;;;;;26.09;nan;95479.16;5044143;28;20203;-66
2022/07/12 09:47:39;;;;;;;0.20;0.20;;;;;;;26.94;nan;95480.44;5039794;28;20208;-67
2022/07/12 09:50:10;;;;;;;0.20;0.20;;;;;;;26.98;nan;95489.38;5048690;28;20271;-63
2022/07/12 09:52:38;;;;;;;0.20;0.20;;;;;;;26.43;nan;95483.97;5030466;28;20274;-66
2022/07/12 09:55:09;;;;;;;2.87;1.03;;;;;;;26.19;nan;95488.63;5026364;28;20198;-65
2022/07/12 09:57:40;;;;;;;0.40;0.40;;;;;;;26.24;nan;95486.47;5030786;28;20188;-68
2022/07/12 10:00:10;;;;;;;0.10;0.10;;;;;;;25.69;nan;95484.41;5021919;28;20250;-66
2022/07/12 10:02:39;;;;;;;0.50;0.50;;;;;;;25.72;nan;95488.34;5030385;28;20202;-66
2022/07/12 10:05:08;;;;;;;0.13;0.13;;;;;;;25.31;nan;95483.16;5039916;28;20203;-65
2022/07/12 10:07:37;;;;;;;0.20;0.20;;;;;;;26.10;nan;95487.97;5035612;28;20286;-65
2022/07/12 10:10:05;;;;;;;0.57;0.33;;;;;;;26.78;nan;95479.63;5009815;28;20186;-63
2022/07/12 10:12:33;;;;;;;0.20;0.20;;;;;;;25.99;nan;95474.19;5023556;28;20258;-64
2022/07/12 10:15:15;;;;;;;0.40;0.40;;;;;;;26.63;nan;95483.00;5009929;28;20201;-65
2022/07/12 10:17:50;;;;;;;0.20;0.20;;;;;;;26.36;nan;95473.03;5037609;28;20744;-63
2022/07/12 10:20:23;;;;;;;0.20;0.20;;;;;;;27.12;nan;95472.81;5025416;28;20192;-67
2022/07/12 10:23:19;;;;;;;0.20;0.20;;;;;;;27.59;nan;95470.16;5035932;28;20235;-68
2022/07/12 10:25:49;;;;;;;0.10;0.10;;;;;;;25.73;nan;95471.13;5035999;28;20727;-63
2022/07/12 10:28:16;;;;;;;0.20;0.20;;;;;;;25.65;nan;95472.00;5015522;28;20217;-65
2022/07/12 10:30:48;;;;;;;0.57;0.50;;;;;;;26.76;nan;95471.09;5039592;28;20184;-66
2022/07/12 10:33:20;;;;;;;0.10;0.10;;;;;;;27.64;nan;95461.81;5049353;28;20191;-64
2022/07/12 10:36:01;;;;;;;0.20;0.20;;;;;;;27.65;nan;95463.38;5039336;28;20694;-66
2022/07/12 10:38:29;;;;;;;0.20;0.20;;;;;;;27.57;nan;95457.03;5033314;28;20559;-66
2022/07/12 10:40:56;;;;;;;0.37;0.37;;;;;;;27.09;nan;95461.97;5049626;28;20567;-64
2022/07/12 10:46:18;;;;;;;0.30;0.30;;;;;;;27.85;nan;95446.13;5040434;28;20685;-66
2022/07/12 10:48:45;;;;;;;0.20;0.20;;;;;;;26.61;nan;95453.00;5033267;28;20303;-65
2022/07/12 10:51:19;;;;;;;0.20;0.20;;;;;;;26.83;nan;95455.16;5038389;28;20207;-67
2022/07/12 10:53:48;;;;;;;0.20;0.20;;;;;;;27.68;nan;95446.53;5015192;28;20326;-66
2022/07/12 10:56:24;;;;;;;0.40;0.33;;;;;;;28.22;nan;95450.06;5015834;28;20232;-65
2022/07/12 10:58:59;;;;;;;0.20;0.20;;;;;;;27.62;nan;95450.59;5023897;28;20189;-67
2022/07/12 11:01:31;;;;;;;0.17;0.17;;;;;;;28.41;nan;95446.59;5034533;28;20229;-67
2022/07/12 11:04:07;;;;;;;0.27;0.27;;;;;;;28.05;nan;95442.38;5048570;28;20554;-70
2022/07/12 11:06:40;;;;;;;0.43;0.43;;;;;;;28.01;nan;95454.97;5034454;28;20200;-66
2022/07/12 11:09:11;;;;;;;0.20;0.20;;;;;;;27.59;nan;95449.38;5015302;28;20288;-68
2022/07/12 11:11:44;;;;;;;0.30;0.30;;;;;;;27.77;nan;95447.13;5034959;28;20213;-68
2022/07/12 11:14:12;;;;;;;0.17;0.17;;;;;;;27.64;nan;95451.84;5036588;28;20265;-65
2022/07/12 11:16:44;;;;;;;0.20;0.20;;;;;;;27.84;nan;95450.75;5021272;28;20184;-64
2022/07/12 11:19:12;;;;;;;0.20;0.20;;;;;;;27.17;nan;95447.56;5022471;28;20197;-68
2022/07/12 11:21:38;;;;;;;0.20;0.20;;;;;;;28.58;nan;95457.75;5007633;28;20197;-65
2022/07/12 11:24:19;;;;;;;0.20;0.20;;;;;;;28.47;nan;95448.63;5031844;28;20308;-69
2022/07/12 11:26:49;;;;;;;0.13;0.13;;;;;;;28.95;nan;95449.97;5048259;28;20227;-65
2022/07/12 11:29:17;;;;;;;0.20;0.20;;;;;;;28.16;nan;95443.38;5048786;28;20639;-66
2022/07/12 11:31:44;;;;;;;0.20;0.20;;;;;;;27.36;nan;95456.53;5035064;28;20197;-65
2022/07/12 11:34:21;;;;;;;0.10;0.10;;;;;;;27.56;nan;95446.63;5038882;28;20200;-68
2022/07/12 11:36:57;;;;;;;0.20;0.20;;;;;;;27.51;nan;95438.81;5044059;28;20204;-67
2022/07/12 11:39:38;;;;;;;0.20;0.20;;;;;;;28.52;nan;95442.97;5039884;28;20773;-69
2022/07/12 11:42:06;;;;;;;0.30;0.30;;;;;;;28.22;nan;95433.09;5014986;28;20197;-67
2022/07/12 11:44:45;;;;;;;0.20;0.20;;;;;;;28.25;nan;95441.25;5040738;28;20258;-63
2022/07/12 11:47:14;;;;;;;0.60;0.60;;;;;;;28.90;nan;95432.13;5035543;28;20698;-63
2022/07/12 11:49:45;;;;;;;0.20;0.20;;;;;;;28.92;nan;95426.41;5040461;28;20192;-69
2022/07/12 11:52:17;;;;;;;0.20;0.20;;;;;;;28.09;nan;95418.97;5034188;28;20208;-69
2022/07/12 11:54:48;;;;;;;0.20;0.20;;;;;;;28.90;nan;95437.53;5024936;28;20210;-69
2022/07/12 11:57:19;;;;;;;0.30;0.30;;;;;;;29.21;nan;95425.00;5016026;28;20283;-65
2022/07/12 11:59:47;;;;;;;0.80;0.80;;;;;;;28.39;nan;95430.00;5028358;28;20233;-67
2022/07/12 12:02:16;;;;;;;0.30;0.30;;;;;;;28.28;nan;95427.09;5048551;28;20195;-64
2022/07/12 12:04:48;;;;;;;0.43;0.40;;;;;;;27.88;nan;95424.66;5034993;28;20298;-66
2022/07/12 12:07:16;;;;;;;0.23;0.23;;;;;;;27.79;nan;95417.94;5020208;28;20247;-66